ADDS METAR Data INFO
IDs: Format: Raw Decoded Include TAF

Data at: 0928 UTC 25 Jun 2018

KULM 250915Z AUTO 10003KT 10SM CLR 18/17 A2999 RMK AO2
KULM 250855Z AUTO 08007KT 10SM CLR 18/17 A2996 RMK AO2
KULM 250835Z AUTO 08007KT 10SM CLR 18/17 A2996 RMK AO2
KULM 250815Z AUTO 09006KT 10SM CLR 18/17 A2997 RMK AO2
KULM 250755Z AUTO 09009KT 10SM CLR 18/17 A2997 RMK AO2
KULM 250735Z AUTO 09007KT 10SM CLR 18/17 A2997 RMK AO2
KULM 250715Z AUTO 08006KT 10SM CLR 18/17 A2998 RMK AO2
KULM 250655Z AUTO 08005KT 10SM CLR 18/17 A2999 RMK AO2
KULM 250635Z AUTO 09005KT 10SM CLR 18/17 A2999 RMK AO2
KULM 250615Z AUTO 18004KT 10SM CLR 18/17 A2999 RMK AO2
KULM 250555Z AUTO 13005KT 10SM -DZ CLR 18/17 A3000 RMK AO2
KULM 250535Z AUTO 14004KT 10SM -RA SCT100 18/18 A3002 RMK AO2
KULM 250515Z AUTO 10004KT 10SM DZ SCT100 18/18 A3002 RMK AO2
KULM 250455Z AUTO 00000KT 10SM -RA CLR 18/17 A3002 RMK AO2 P0001
KULM 250435Z AUTO 00000KT 10SM -RA CLR 18/18 A3002 RMK AO2 LTG DSNT S AND SW P0001
KULM 250415Z AUTO 00000KT 10SM -RA CLR 18/17 A3001 RMK AO2 LTG DSNT S
KULM 250355Z AUTO 00000KT 10SM -RA CLR 19/17 A3000 RMK AO2 P0001
KULM 250335Z AUTO 12004KT 10SM -RA CLR 19/17 A2999 RMK AO2 P0001
KULM 250315Z AUTO 13006KT 10SM -RA CLR 19/17 A2998 RMK AO2
KULM 250255Z AUTO 13008KT 10SM -RA SCT100 19/17 A2998 RMK AO2 LTG DSNT SE P0003
KULM 250235Z AUTO 14007KT 10SM -RA SCT090 19/17 A2998 RMK AO2 P0002
KULM 250215Z AUTO 14008KT 10SM -RA CLR 19/18 A2998 RMK AO2 P0001
KULM 250155Z AUTO 12007KT 10SM -RA SCT100 19/18 A2998 RMK AO2 LTG DSNT S P0006
KULM 250135Z AUTO 00000KT 10SM -RA SCT110 19/18 A2998 RMK AO2 P0004
KULM 250115Z AUTO 12003KT 10SM -RA SCT110 19/18 A2997 RMK AO2 P0002
KULM 250055Z AUTO 16003KT 10SM -RA SCT090 19/18 A2996 RMK AO2 LTG DSNT S AND SW P0003
KULM 250035Z AUTO 15004KT 10SM -RA BKN080 BKN090 19/18 A2995 RMK AO2 LTG DSNT S P0001
KULM 250015Z AUTO 18005KT 10SM -RA BKN080 19/18 A2996 RMK AO2 LTG DSNT S AND SW
KULM 242355Z AUTO 16005KT 10SM -RA SCT080 20/18 A2995 RMK AO2 LTG DSNT S
KULM 242335Z AUTO 13003KT 10SM VCTS SCT080 20/17 A2993 RMK AO2 LTG DSNT SE AND S
KULM 242315Z AUTO 12007KT 10SM CLR 20/17 A2993 RMK AO2 LTG DSNT SE AND S
KULM 242255Z AUTO 12010KT 10SM CLR 21/17 A2992 RMK AO2 LTG DSNT S
KULM 242235Z AUTO 12008KT 10SM CLR 21/18 A2992 RMK AO2
KULM 242215Z AUTO 11009KT 10SM SCT090 22/19 A2992 RMK AO2
KULM 242155Z AUTO 11007KT 10SM SCT090 21/19 A2993 RMK AO2 P0007
KULM 242135Z AUTO 09003KT 10SM RA BKN090 21/18 A2995 RMK AO2 LTG DSNT N AND SE P0007
KULM 242115Z AUTO 15005KT 10SM -RA SCT009 BKN044 OVC090 21/18 A2995 RMK AO2 LTG DSNT S P0006
KULM 242055Z AUTO 11009G14KT 10SM RA BKN100 22/18 A2994 RMK AO2 LTG DSNT SE THRU SW P0001
KULM 242035Z AUTO 13009KT 10SM SCT110 22/18 A2993 RMK AO2 LTG DSNT SE AND S
KULM 242015Z AUTO 12010KT 10SM CLR 22/18 A2992 RMK AO2 LTG DSNT SE
KULM 241955Z AUTO 13007KT 10SM CLR 22/18 A2992 RMK AO2 LTG DSNT SE AND S
KULM 241935Z AUTO 14010KT 10SM SCT055 SCT070 SCT110 23/18 A2993 RMK AO2 LTG DSNT S
KULM 241915Z AUTO 12010KT 10SM SCT055 23/18 A2993 RMK AO2 LTG DSNT SE
KULM 241855Z AUTO 14011G15KT 10SM SCT019 SCT080 24/19 A2993 RMK AO2 LTG DSNT SE AND S
KULM 241835Z AUTO 12010G16KT 10SM VCTS SCT019 24/19 A2991 RMK AO2 LTG DSNT S
KULM 241815Z AUTO 11013G18KT 10SM SCT050 23/19 A2991 RMK AO2 LTG DSNT SE
KULM 241755Z AUTO 12011KT 10SM BKN050 23/19 A2992 RMK AO2 LTG DSNT SE
KULM 241735Z AUTO 12013KT 10SM VCTS SCT050 22/19 A2992 RMK AO2 LTG DSNT SE
KULM 241715Z AUTO 11012G15KT 10SM SCT050 22/19 A2992 RMK AO2 LTG DSNT E
KULM 241655Z AUTO 12011KT 10SM VCTS CLR 21/19 A2993 RMK AO2 LTG DSNT E THRU S
KULM 241635Z AUTO 13009KT 10SM VCTS SCT075 21/19 A2993 RMK AO2 LTG DSNT E AND SE
KULM 241615Z AUTO 10004KT 10SM SCT055 BKN075 19/17 A2992 RMK AO2 LTG DSNT E AND SE
KULM 241555Z AUTO 09008KT 10SM -TSRA SCT001 BKN046 OVC055 18/17 A2992 RMK AO2 LTG DSNT ALQDS P0084
KULM 241535Z AUTO 34004KT 2SM +TSRA SCT003 BKN025 OVC048 18/17 A2994 RMK AO2 LTG DSNT ALQDS P0037
KULM 241515Z AUTO 36007KT 7SM +TSRA SCT017 BKN023 OVC046 19/18 A2992 RMK AO2 LTG DSNT ALQDS P0007
KULM 241455Z AUTO 03008KT 3SM +TSRA SCT014 OVC023 19/18 A2990 RMK AO2 LTG DSNT ALQDS P0040
KULM 241435Z AUTO 33008KT 10SM -TSRA SCT014 BKN033 OVC075 19/18 A2992 RMK AO2 LTG DSNT S THRU NW P0010
KULM 241415Z AUTO 07003KT 7SM -RA SCT010 SCT017 BKN055 19/18 A2989 RMK AO2 LTG DSNT SW THRU NW P0010
KULM 241355Z AUTO 14006KT 10SM BKN055 BKN070 20/17 A2987 RMK AO2 LTG DSNT NW P0001
KULM 241335Z AUTO 13007KT 10SM SCT070 SCT100 20/17 A2986 RMK AO2 LTG DSNT SW AND W P0001
KULM 241315Z AUTO 12006KT 10SM SCT090 19/17 A2987 RMK AO2 LTG DSNT W P0001
KULM 241255Z AUTO 12006KT 10SM BKN090 120 19/17 A2986 RMK AO2
KULM 241235Z AUTO 15005KT 10SM SCT100 19/17 A2986 RMK AO2 LTG DSNT NW
KULM 241215Z AUTO 15005KT 10SM SCT090 120 19/17 A2985 RMK AO2 LTG DSNT W AND NW
KULM 241155Z AUTO 13004KT 10SM SCT060 SCT090 120 18/17 A2984 RMK AO2 P0005
KULM 241135Z AUTO 15006KT 10SM SCT060 SCT070 BKN090 18/17 A2983 RMK AO2 LTG DSNT W P0005
KULM 241115Z AUTO 09005KT 10SM -VCTSRA SCT024 BKN060 OVC090 19/17 A2982 RMK AO2 LTG DSNT SE P0005
KULM 241055Z AUTO 14004KT 7SM -RA SCT037 BKN065 OVC080 18/17 A2982 RMK AO2 LTG DSNT NW
KULM 241035Z AUTO 17003KT 10SM SCT065 BKN090 18/17 A2982 RMK AO2 LTG DSNT W
KULM 241015Z AUTO 14004KT 10SM SCT065 18/17 A2981 RMK AO2 LTG DSNT SW THRU NW
KULM 240955Z AUTO 00000KT 10SM -RA SCT090 SCT110 19/17 A2981 RMK AO2 LTG DSNT W
KULM 240935Z AUTO 09004KT 10SM -RA BKN065 BKN090 OVC110 19/17 A2981 RMK AO2 LTG DSNT W
KULM 240915Z AUTO 15004KT 10SM OVC065 19/17 A2982 RMK AO2 LTG DSNT S AND W
KULM 240855Z AUTO 15005KT 10SM BKN065 OVC075 19/17 A2981 RMK AO2
KULM 240835Z AUTO 14007KT 10SM OVC075 19/17 A2981 RMK AO2
KULM 240815Z AUTO 14005KT 10SM SCT060 OVC075 19/17 A2981 RMK AO2
KULM 240755Z AUTO 12006KT 10SM OVC075 19/17 A2981 RMK AO2
KULM 240735Z AUTO 13006KT 10SM OVC075 19/17 A2981 RMK AO2 LTG DSNT SW AND W
KULM 240715Z AUTO 15005KT 10SM OVC085 19/16 A2982 RMK AO2
KULM 240655Z AUTO 15005KT 10SM SCT085 BKN110 19/16 A2981 RMK AO2 LTG DSNT SW
KULM 240635Z AUTO 15005KT 10SM SCT110 19/16 A2981 RMK AO2
KULM 240615Z AUTO 15005KT 10SM CLR 19/16 A2980 RMK AO2
KULM 240555Z AUTO 13005KT 10SM CLR 19/16 A2980 RMK AO2
KULM 240535Z AUTO 14005KT 10SM CLR 19/16 A2980 RMK AO2
KULM 240516Z AUTO 16005KT 10SM CLR 19/16 A2980 RMK AO2
KULM 240455Z AUTO 15005KT 10SM CLR 20/16 A2979 RMK AO2 LTG DSNT SW
KULM 240435Z AUTO 15005KT 10SM CLR 19/16 A2979 RMK AO2
KULM 240415Z AUTO 16004KT 10SM CLR 19/16 A2979 RMK AO2
KULM 240355Z AUTO 16004KT 10SM CLR 20/16 A2980 RMK AO2
KULM 240335Z AUTO 15005KT 10SM CLR 21/16 A2979 RMK AO2
KULM 240315Z AUTO 14005KT 10SM CLR 21/16 A2979 RMK AO2
KULM 240255Z AUTO 14004KT 10SM CLR /17 A2978 RMK AO2
KULM 240238Z AUTO 15000KT 10SM SCT120 21/17 A2978 RMK AO2
KULM 240215Z AUTO 15004KT 10SM BKN120 22/16 A2977 RMK AO2
KULM 240155Z AUTO 14004KT 10SM SCT120 22/17 A2977 RMK AO2
KULM 240135Z AUTO 15004KT 10SM CLR 23/16 A2977 RMK AO2
KULM 240115Z AUTO 15004KT 10SM CLR 23/16 A2976 RMK AO2
KULM 240055Z AUTO 15004KT 10SM CLR 24/16 A2975 RMK AO2 LTG DSNT W
KULM 240035Z AUTO 15003KT 10SM CLR 24/17 A2975 RMK AO2
KULM 240015Z AUTO 16003KT 10SM CLR 24/16 A2975 RMK AO2
KULM 232355Z AUTO 15003KT 10SM CLR 24/16 A2975 RMK AO2
KULM 232335Z AUTO 15003KT 10SM CLR 24/16 A2975 RMK AO2
KULM 232315Z AUTO 16004KT 10SM CLR 24/16 A2975 RMK AO2
KULM 232255Z AUTO 15004KT 10SM CLR 24/16 A2974 RMK AO2
KULM 232235Z AUTO 17004KT 10SM CLR 24/16 A2974 RMK AO2
KULM 232215Z AUTO 19004KT 10SM SCT049 24/16 A2974 RMK AO2
KULM 232155Z AUTO 18003KT 10SM SCT047 25/17 A2975 RMK AO2
KULM 232135Z AUTO 15004KT 10SM CLR 24/16 A2975 RMK AO2